Hovedside
METAR-TAF:

METAR-TAF

Lufthavner :

Førde lufthamn. Bringeland

Førde, Norge

breddegrad: 61-27N, lengdegrad: 005-52E, høyde over havet: 150 m

Gjeldene værobservasjon

Denne rapporten ble laget for 1 time og 4 minutter siden, klokken 03:50 UTC
Vind 2 kt fra Sørøst
Temperatur 5°C
Luftfuktighet 93%
Trykk 1009 hPa
Sikt: 6000 m
Få skyer i en høyde av 600 ft
Spredte skyer i en høyde av 1200 ft
Brutte skyer i en høyde av 2000 ft
lett regn

METAR: ENBL 210350Z 13002KT 9999 6000E -RA FEW006 SCT012 BKN020 05/04 Q1009

Tid: 06:54 (04:54 UTC)


TAF: fraværende

Værobservasjoner og værvarsel for over 4000 flyplasser (METAR- og TAF-rapporter).

Tilgjengelige stasjoner er representert av de røde og gule prikkene på kartet.

Hold musepekeren over prikken for å se navnet på stasjonen.

Klikk så for å se værobservasjoner og -varsler.

For å forandre kartet kan du klikke på den grønne knappen med svart kryss for å zoome inn, på den grønne knappen med strek for å zoome ut, eller på de grønne pilene for å se tilstøtende kart.


METAR-TAF: